Terminal Aerodrome Forecast
Issued by NWS Wilmington, OH

Current Version | Previous Version | Graphics & Text | Print | Product List | Glossary On
Versions: 1 2 3 4 5 6 7 8 9 10 11 12 13 14 15 16 17 18 19 20 21 22 23 24 25 26 27 28 29 30
000
FTUS41 KILN 162127 AAB
TAFDAY
TAF AMD
KDAY 162127Z 1621/1718 15006KT P6SM VCSH BKN008
     FM162300 15006KT 2SM -SHRA BR OVC004
     FM170700 16008KT 2SM -SHRA BR OVC004 WS020/20035KT
     FM171500 21011KT P6SM OVC007
     FM171700 23012G20KT P6SM BKN020 OVC080=

USA.gov is the U.S. government's official web portal to all federal, state and local government web resources and services.